sensor_id;sensor_type;location;lat;lon;timestamp;pressure;altitude;pressure_sealevel;temperature;humidity
27805;BME280;15183;51.350;11.102;2023-04-04T00:00:14;101331.25;;;6.22;48.49
27805;BME280;15183;51.350;11.102;2023-04-04T00:02:41;101377.28;;;6.53;48.42
27805;BME280;15183;51.350;11.102;2023-04-04T00:05:08;101371.00;;;6.45;48.49
27805;BME280;15183;51.350;11.102;2023-04-04T00:07:34;101375.56;;;6.43;48.53
27805;BME280;15183;51.350;11.102;2023-04-04T00:10:01;101387.81;;;6.53;48.85
27805;BME280;15183;51.350;11.102;2023-04-04T00:12:27;101329.47;;;6.22;48.96
27805;BME280;15183;51.350;11.102;2023-04-04T00:14:54;101385.19;;;6.53;48.47
27805;BME280;15183;51.350;11.102;2023-04-04T00:17:20;101390.44;;;6.53;48.78
27805;BME280;15183;51.350;11.102;2023-04-04T00:19:47;101386.81;;;6.45;49.02
27805;BME280;15183;51.350;11.102;2023-04-04T00:22:13;101380.91;;;6.51;49.16
27805;BME280;15183;51.350;11.102;2023-04-04T00:24:39;101328.44;;;6.15;48.76
27805;BME280;15183;51.350;11.102;2023-04-04T00:27:06;101381.06;;;6.58;48.49
27805;BME280;15183;51.350;11.102;2023-04-04T00:29:33;101365.91;;;6.52;48.81
27805;BME280;15183;51.350;11.102;2023-04-04T00:32:02;101338.38;;;6.38;49.02
27805;BME280;15183;51.350;11.102;2023-04-04T00:34:29;101362.28;;;6.53;49.11
27805;BME280;15183;51.350;11.102;2023-04-04T00:36:55;101377.28;;;6.61;49.09
27805;BME280;15183;51.350;11.102;2023-04-04T00:39:22;101347.47;;;6.44;48.82
27805;BME280;15183;51.350;11.102;2023-04-04T00:41:49;101365.09;;;6.51;48.78
27805;BME280;15183;51.350;11.102;2023-04-04T00:44:15;101374.47;;;6.54;48.94
27805;BME280;15183;51.350;11.102;2023-04-04T00:46:42;101372.34;;;6.58;49.01
27805;BME280;15183;51.350;11.102;2023-04-04T00:49:08;101362.47;;;6.51;49.13
27805;BME280;15183;51.350;11.102;2023-04-04T00:51:35;101378.59;;;6.57;49.12
27805;BME280;15183;51.350;11.102;2023-04-04T00:54:02;101369.53;;;6.51;49.02
27805;BME280;15183;51.350;11.102;2023-04-04T00:56:29;101356.81;;;6.38;49.19
27805;BME280;15183;51.350;11.102;2023-04-04T00:58:59;101365.09;;;6.51;49.07
27805;BME280;15183;51.350;11.102;2023-04-04T01:01:26;101355.34;;;6.44;49.03
27805;BME280;15183;51.350;11.102;2023-04-04T01:03:52;101360.16;;;6.48;49.21
27805;BME280;15183;51.350;11.102;2023-04-04T01:06:19;101365.91;;;6.52;49.07
27805;BME280;15183;51.350;11.102;2023-04-04T01:08:46;101371.50;;;6.57;48.84
27805;BME280;15183;51.350;11.102;2023-04-04T01:11:14;101357.53;;;6.48;49.00
27805;BME280;15183;51.350;11.102;2023-04-04T01:13:40;101340.34;;;6.28;48.52
27805;BME280;15183;51.350;11.102;2023-04-04T01:16:08;101350.16;;;6.17;48.89
27805;BME280;15183;51.350;11.102;2023-04-04T01:18:35;101370.16;;;6.36;48.75
27805;BME280;15183;51.350;11.102;2023-04-04T01:21:06;101342.94;;;6.19;48.39
27805;BME280;15183;51.350;11.102;2023-04-04T01:24:01;101335.38;;;6.16;49.42
27805;BME280;15183;51.350;11.102;2023-04-04T01:26:30;101322.19;;;6.08;49.23
27805;BME280;15183;51.350;11.102;2023-04-04T01:28:57;101360.91;;;6.32;49.04
27805;BME280;15183;51.350;11.102;2023-04-04T01:31:40;101360.91;;;6.32;49.08
27805;BME280;15183;51.350;11.102;2023-04-04T01:34:35;101357.44;;;6.23;49.53
27805;BME280;15183;51.350;11.102;2023-04-04T01:39:48;101346.91;;;6.23;49.49
27805;BME280;15183;51.350;11.102;2023-04-04T01:42:17;101338.97;;;6.15;49.32
27805;BME280;15183;51.350;11.102;2023-04-04T01:44:45;101351.19;;;6.25;49.46
27805;BME280;15183;51.350;11.102;2023-04-04T01:47:12;101310.91;;;5.98;49.54
27805;BME280;15183;51.350;11.102;2023-04-04T01:49:38;101327.44;;;6.08;49.56
27805;BME280;15183;51.350;11.102;2023-04-04T01:52:04;101338.47;;;6.20;49.66
27805;BME280;15183;51.350;11.102;2023-04-04T01:54:32;101294.75;;;5.84;49.45
27805;BME280;15183;51.350;11.102;2023-04-04T01:57:01;101310.53;;;5.84;49.85
27805;BME280;15183;51.350;11.102;2023-04-04T01:59:27;101332.84;;;6.06;49.45
27805;BME280;15183;51.350;11.102;2023-04-04T02:01:54;101324.72;;;6.00;49.62
27805;BME280;15183;51.350;11.102;2023-04-04T02:04:20;101311.53;;;5.91;49.41
27805;BME280;15183;51.350;11.102;2023-04-04T02:06:47;101314.94;;;5.84;49.36
27805;BME280;15183;51.350;11.102;2023-04-04T02:09:13;101314.63;;;5.87;49.39
27805;BME280;15183;51.350;11.102;2023-04-04T02:11:39;101299.63;;;5.71;49.63
27805;BME280;15183;51.350;11.102;2023-04-04T02:14:06;101313.13;;;5.76;49.72
27805;BME280;15183;51.350;11.102;2023-04-04T02:16:32;101290.19;;;5.60;49.99
27805;BME280;15183;51.350;11.102;2023-04-04T02:18:59;101292.19;;;5.66;49.88
27805;BME280;15183;51.350;11.102;2023-04-04T02:21:25;101318.69;;;5.73;50.25
27805;BME280;15183;51.350;11.102;2023-04-04T02:23:52;101309.63;;;5.67;49.87
27805;BME280;15183;51.350;11.102;2023-04-04T02:26:19;101318.38;;;5.76;50.60
27805;BME280;15183;51.350;11.102;2023-04-04T02:28:46;101282.63;;;5.57;50.96
27805;BME280;15183;51.350;11.102;2023-04-04T02:31:12;101304.56;;;5.74;50.65
27805;BME280;15183;51.350;11.102;2023-04-04T02:33:39;101300.13;;;5.74;50.88
27805;BME280;15183;51.350;11.102;2023-04-04T02:36:05;101324.34;;;5.86;51.18
27805;BME280;15183;51.350;11.102;2023-04-04T02:38:32;101318.13;;;5.96;51.20
27805;BME280;15183;51.350;11.102;2023-04-04T02:40:59;101314.38;;;5.98;51.52
27805;BME280;15183;51.350;11.102;2023-04-04T02:43:25;101306.31;;;6.00;51.48
27805;BME280;15183;51.350;11.102;2023-04-04T02:45:52;101311.13;;;6.04;51.77
27805;BME280;15183;51.350;11.102;2023-04-04T02:48:18;101283.94;;;5.96;51.57
27805;BME280;15183;51.350;11.102;2023-04-04T02:50:45;101294.50;;;6.04;51.58
27805;BME280;15183;51.350;11.102;2023-04-04T02:53:13;101295.19;;;6.06;52.11
27805;BME280;15183;51.350;11.102;2023-04-04T02:55:39;101303.47;;;6.19;51.91
27805;BME280;15183;51.350;11.102;2023-04-04T02:58:06;101312.69;;;6.23;52.13
27805;BME280;15183;51.350;11.102;2023-04-04T03:00:32;101298.22;;;6.19;51.73
27805;BME280;15183;51.350;11.102;2023-04-04T03:02:59;101290.94;;;6.13;51.90
27805;BME280;15183;51.350;11.102;2023-04-04T03:05:26;101304.66;;;6.25;52.30
27805;BME280;15183;51.350;11.102;2023-04-04T03:07:54;101295.41;;;6.21;51.88
27805;BME280;15183;51.350;11.102;2023-04-04T03:10:27;101282.75;;;6.16;52.25
27805;BME280;15183;51.350;11.102;2023-04-04T03:12:57;101268.28;;;6.20;52.47
27805;BME280;15183;51.350;11.102;2023-04-04T03:15:24;101269.25;;;6.19;51.81
27805;BME280;15183;51.350;11.102;2023-04-04T03:17:52;101264.34;;;6.25;52.12
27805;BME280;15183;51.350;11.102;2023-04-04T03:20:18;101284.78;;;6.47;52.38
27805;BME280;15183;51.350;11.102;2023-04-04T03:22:45;101310.00;;;6.66;51.92
27805;BME280;15183;51.350;11.102;2023-04-04T03:25:11;101295.19;;;6.65;52.23
27805;BME280;15183;51.350;11.102;2023-04-04T03:27:38;101224.84;;;6.25;52.33
27805;BME280;15183;51.350;11.102;2023-04-04T03:30:07;101290.41;;;6.69;52.55
27805;BME280;15183;51.350;11.102;2023-04-04T03:32:35;101275.59;;;6.60;52.17
27805;BME280;15183;51.350;11.102;2023-04-04T03:35:02;101246.09;;;6.48;52.80
27805;BME280;15183;51.350;11.102;2023-04-04T03:37:29;101284.31;;;6.77;52.58
27805;BME280;15183;51.350;11.102;2023-04-04T03:39:55;101283.81;;;6.81;52.64
27805;BME280;15183;51.350;11.102;2023-04-04T03:42:22;101255.34;;;6.69;52.86
27805;BME280;15183;51.350;11.102;2023-04-04T03:44:48;101288.78;;;6.93;52.80
27805;BME280;15183;51.350;11.102;2023-04-04T03:47:15;101272.78;;;6.94;52.77
27805;BME280;15183;51.350;11.102;2023-04-04T03:49:41;101257.81;;;6.87;52.74
27805;BME280;15183;51.350;11.102;2023-04-04T03:52:07;101269.16;;;6.95;52.61
27805;BME280;15183;51.350;11.102;2023-04-04T03:54:34;101219.13;;;6.62;52.97
27805;BME280;15183;51.350;11.102;2023-04-04T03:57:00;101263.25;;;7.02;52.92
27805;BME280;15183;51.350;11.102;2023-04-04T03:59:28;101259.44;;;6.96;52.82
27805;BME280;15183;51.350;11.102;2023-04-04T04:01:54;101275.25;;;7.04;52.96
27805;BME280;15183;51.350;11.102;2023-04-04T04:04:21;101266.19;;;6.99;53.02
27805;BME280;15183;51.350;11.102;2023-04-04T04:06:47;101265.53;;;6.97;53.34
27805;BME280;15183;51.350;11.102;2023-04-04T04:09:14;101270.81;;;7.05;53.01
27805;BME280;15183;51.350;11.102;2023-04-04T04:11:40;101257.47;;;6.98;53.11
27805;BME280;15183;51.350;11.102;2023-04-04T04:14:07;101249.56;;;6.98;53.25
27805;BME280;15183;51.350;11.102;2023-04-04T04:16:34;101274.59;;;7.10;53.13
27805;BME280;15183;51.350;11.102;2023-04-04T04:19:00;101258.13;;;7.08;53.44
27805;BME280;15183;51.350;11.102;2023-04-04T04:21:27;101200.03;;;6.77;53.31
27805;BME280;15183;51.350;11.102;2023-04-04T04:23:53;101260.44;;;7.20;53.30
27805;BME280;15183;51.350;11.102;2023-04-04T04:26:19;101264.38;;;7.24;53.53
27805;BME280;15183;51.350;11.102;2023-04-04T04:28:46;101237.69;;;7.10;53.45
27805;BME280;15183;51.350;11.102;2023-04-04T04:31:15;101193.41;;;6.89;53.46
27805;BME280;15183;51.350;11.102;2023-04-04T04:33:41;101264.81;;;7.36;53.58
27805;BME280;15183;51.350;11.102;2023-04-04T04:36:08;101266.47;;;7.37;53.29
27805;BME280;15183;51.350;11.102;2023-04-04T04:38:34;101253.50;;;7.27;53.24
27805;BME280;15183;51.350;11.102;2023-04-04T04:41:01;101258.25;;;7.23;53.58
27805;BME280;15183;51.350;11.102;2023-04-04T04:43:28;101244.94;;;7.25;53.44
27805;BME280;15183;51.350;11.102;2023-04-04T04:45:54;101235.72;;;7.21;53.00
27805;BME280;15183;51.350;11.102;2023-04-04T04:48:21;101235.22;;;7.17;53.25
27805;BME280;15183;51.350;11.102;2023-04-04T04:50:47;101254.28;;;7.28;53.29
27805;BME280;15183;51.350;11.102;2023-04-04T04:53:14;101258.56;;;7.29;52.99
27805;BME280;15183;51.350;11.102;2023-04-04T04:55:41;101260.75;;;7.25;53.40
27805;BME280;15183;51.350;11.102;2023-04-04T04:58:08;101264.69;;;7.29;53.26
27805;BME280;15183;51.350;11.102;2023-04-04T05:00:36;101266.00;;;7.25;53.15
27805;BME280;15183;51.350;11.102;2023-04-04T05:03:04;101237.03;;;7.08;53.36
27805;BME280;15183;51.350;11.102;2023-04-04T05:05:33;101240.84;;;7.06;53.37
27805;BME280;15183;51.350;11.102;2023-04-04T05:08:01;101240.34;;;7.02;53.22
27805;BME280;15183;51.350;11.102;2023-04-04T05:10:28;101277.19;;;7.19;52.77
27805;BME280;15183;51.350;11.102;2023-04-04T05:12:56;101235.75;;;6.96;53.36
27805;BME280;15183;51.350;11.102;2023-04-04T05:15:22;101263.88;;;7.12;53.52
27805;BME280;15183;51.350;11.102;2023-04-04T05:17:51;101260.59;;;7.10;53.26
27805;BME280;15183;51.350;11.102;2023-04-04T05:20:17;101245.28;;;7.05;53.18
27805;BME280;15183;51.350;11.102;2023-04-04T05:22:44;101266.66;;;7.19;53.38
27805;BME280;15183;51.350;11.102;2023-04-04T05:25:11;101283.47;;;7.26;53.48
27805;BME280;15183;51.350;11.102;2023-04-04T05:27:39;101282.81;;;7.24;53.13
27805;BME280;15183;51.350;11.102;2023-04-04T05:30:07;101267.66;;;7.09;53.33
27805;BME280;15183;51.350;11.102;2023-04-04T05:32:34;101291.38;;;7.18;53.40
27805;BME280;15183;51.350;11.102;2023-04-04T05:35:01;101296.66;;;7.26;53.51
27805;BME280;15183;51.350;11.102;2023-04-04T05:37:27;101298.63;;;7.32;53.17
27805;BME280;15183;51.350;11.102;2023-04-04T05:39:54;101305.69;;;7.32;53.39
27805;BME280;15183;51.350;11.102;2023-04-04T05:42:20;101305.38;;;7.43;53.34
27805;BME280;15183;51.350;11.102;2023-04-04T05:44:47;101310.75;;;7.50;53.40
27805;BME280;15183;51.350;11.102;2023-04-04T05:47:13;101305.81;;;7.55;53.46
27805;BME280;15183;51.350;11.102;2023-04-04T05:49:41;101308.59;;;7.62;53.42
27805;BME280;15183;51.350;11.102;2023-04-04T05:52:07;101294.59;;;7.61;53.18
27805;BME280;15183;51.350;11.102;2023-04-04T05:54:33;101289.34;;;7.61;53.20
27805;BME280;15183;51.350;11.102;2023-04-04T05:57:00;101268.44;;;7.43;53.41
27805;BME280;15183;51.350;11.102;2023-04-04T05:59:26;101319.44;;;7.84;53.32
27805;BME280;15183;51.350;11.102;2023-04-04T06:01:54;101315.81;;;7.85;53.44
27805;BME280;15183;51.350;11.102;2023-04-04T06:04:20;101291.75;;;7.71;53.36
27805;BME280;15183;51.350;11.102;2023-04-04T06:06:47;101318.59;;;7.83;53.29
27805;BME280;15183;51.350;11.102;2023-04-04T06:09:14;101321.53;;;7.88;53.40
27805;BME280;15183;51.350;11.102;2023-04-04T06:11:40;101326.63;;;7.98;53.39
27805;BME280;15183;51.350;11.102;2023-04-04T06:14:07;101322.84;;;8.01;53.36
27805;BME280;15183;51.350;11.102;2023-04-04T06:16:34;101315.91;;;8.00;53.27
27805;BME280;15183;51.350;11.102;2023-04-04T06:19:01;101317.56;;;8.01;53.42
27805;BME280;15183;51.350;11.102;2023-04-04T06:21:28;101291.19;;;7.92;53.07
27805;BME280;15183;51.350;11.102;2023-04-04T06:23:54;101332.81;;;8.22;53.12
27805;BME280;15183;51.350;11.102;2023-04-04T06:26:21;101330.28;;;8.29;53.35
27805;BME280;15183;51.350;11.102;2023-04-04T06:28:50;101317.63;;;8.24;53.06
27805;BME280;15183;51.350;11.102;2023-04-04T06:31:17;101321.91;;;8.25;52.80
27805;BME280;15183;51.350;11.102;2023-04-04T06:33:43;101331.47;;;8.26;52.87
27805;BME280;15183;51.350;11.102;2023-04-04T06:36:09;101330.31;;;8.20;52.66
27805;BME280;15183;51.350;11.102;2023-04-04T06:38:36;101317.69;;;8.07;52.80
27805;BME280;15183;51.350;11.102;2023-04-04T06:41:02;101337.91;;;8.23;53.10
27805;BME280;15183;51.350;11.102;2023-04-04T06:43:29;101283.91;;;8.03;53.01
27805;BME280;15183;51.350;11.102;2023-04-04T06:45:56;101325.00;;;8.29;52.83
27805;BME280;15183;51.350;11.102;2023-04-04T06:48:22;101305.91;;;8.18;52.93
27805;BME280;15183;51.350;11.102;2023-04-04T06:50:48;101322.00;;;8.32;52.79
27805;BME280;15183;51.350;11.102;2023-04-04T06:53:15;101315.28;;;8.29;52.74
27805;BME280;15183;51.350;11.102;2023-04-04T06:55:42;101325.44;;;8.40;52.74
27805;BME280;15183;51.350;11.102;2023-04-04T06:58:08;101301.59;;;8.25;52.81
27805;BME280;15183;51.350;11.102;2023-04-04T07:00:35;101309.78;;;8.39;52.89
27805;BME280;15183;51.350;11.102;2023-04-04T07:03:01;101335.13;;;8.57;52.54
27805;BME280;15183;51.350;11.102;2023-04-04T07:05:28;101328.44;;;8.69;52.91
27805;BME280;15183;51.350;11.102;2023-04-04T07:07:55;101320.69;;;8.91;53.23
27805;BME280;15183;51.350;11.102;2023-04-04T07:10:23;101301.97;;;9.16;53.70
27805;BME280;15183;51.350;11.102;2023-04-04T07:12:50;101323.66;;;9.64;52.95
27805;BME280;15183;51.350;11.102;2023-04-04T07:15:16;101332.97;;;9.90;52.87
27805;BME280;15183;51.350;11.102;2023-04-04T07:17:44;101321.53;;;10.05;52.21
27805;BME280;15183;51.350;11.102;2023-04-04T07:20:10;101323.94;;;10.21;51.95
27805;BME280;15183;51.350;11.102;2023-04-04T07:22:38;101306.72;;;10.25;51.89
27805;BME280;15183;51.350;11.102;2023-04-04T07:25:06;101304.84;;;10.41;51.64
27805;BME280;15183;51.350;11.102;2023-04-04T07:27:33;101282.66;;;10.42;51.14
27805;BME280;15183;51.350;11.102;2023-04-04T07:29:59;101327.84;;;10.77;50.22
27805;BME280;15183;51.350;11.102;2023-04-04T07:32:26;101320.91;;;10.76;49.88
27805;BME280;15183;51.350;11.102;2023-04-04T07:34:52;101297.66;;;10.56;49.43
27805;BME280;15183;51.350;11.102;2023-04-04T07:37:19;101315.03;;;10.59;49.04
27805;BME280;15183;51.350;11.102;2023-04-04T07:39:46;101273.75;;;10.13;48.86
27805;BME280;15183;51.350;11.102;2023-04-04T07:42:15;101323.88;;;10.45;48.28
27805;BME280;15183;51.350;11.102;2023-04-04T07:44:56;101325.38;;;10.39;47.53
27805;BME280;15183;51.350;11.102;2023-04-04T07:47:23;101314.94;;;10.16;47.39
27805;BME280;15183;51.350;11.102;2023-04-04T07:49:49;101330.09;;;10.22;47.53
27805;BME280;15183;51.350;11.102;2023-04-04T07:52:15;101271.06;;;9.91;47.19
27805;BME280;15183;51.350;11.102;2023-04-04T07:54:42;101266.41;;;9.93;47.10
27805;BME280;15183;51.350;11.102;2023-04-04T07:57:08;101320.00;;;10.32;45.88
27805;BME280;15183;51.350;11.102;2023-04-04T07:59:36;101327.06;;;10.40;45.81
27805;BME280;15183;51.350;11.102;2023-04-04T08:02:02;101317.81;;;10.51;45.80
27805;BME280;15183;51.350;11.102;2023-04-04T08:04:29;101307.59;;;10.48;45.38
27805;BME280;15183;51.350;11.102;2023-04-04T08:06:55;101313.94;;;10.53;45.19
27805;BME280;15183;51.350;11.102;2023-04-04T08:09:22;101312.25;;;10.67;45.07
27805;BME280;15183;51.350;11.102;2023-04-04T08:11:48;101306.00;;;10.75;45.30
27805;BME280;15183;51.350;11.102;2023-04-04T08:14:14;101314.69;;;10.91;44.29
27805;BME280;15183;51.350;11.102;2023-04-04T08:16:41;101301.34;;;10.77;44.11
27805;BME280;15183;51.350;11.102;2023-04-04T08:19:08;101248.56;;;10.39;44.23
27805;BME280;15183;51.350;11.102;2023-04-04T08:21:34;101323.81;;;10.81;43.08
27805;BME280;15183;51.350;11.102;2023-04-04T08:24:01;101305.75;;;10.70;43.61
27805;BME280;15183;51.350;11.102;2023-04-04T08:26:27;101309.44;;;10.69;43.22
27805;BME280;15183;51.350;11.102;2023-04-04T08:28:54;101315.75;;;10.68;43.73
27805;BME280;15183;51.350;11.102;2023-04-04T08:31:20;101321.09;;;10.75;43.80
27805;BME280;15183;51.350;11.102;2023-04-04T08:33:47;101325.19;;;10.77;43.94
27805;BME280;15183;51.350;11.102;2023-04-04T08:36:14;101317.25;;;10.77;43.30
27805;BME280;15183;51.350;11.102;2023-04-04T08:38:41;101316.88;;;10.80;43.22
27805;BME280;15183;51.350;11.102;2023-04-04T08:41:08;101257.78;;;10.43;42.41
27805;BME280;15183;51.350;11.102;2023-04-04T08:43:38;101318.03;;;10.78;42.43
27805;BME280;15183;51.350;11.102;2023-04-04T08:46:08;101262.94;;;10.30;41.82
27805;BME280;15183;51.350;11.102;2023-04-04T08:48:38;101324.50;;;10.68;42.25
27805;BME280;15183;51.350;11.102;2023-04-04T08:51:07;101328.16;;;10.67;42.67
27805;BME280;15183;51.350;11.102;2023-04-04T08:53:36;101320.97;;;10.61;42.59
27805;BME280;15183;51.350;11.102;2023-04-04T08:56:02;101329.75;;;10.62;42.68
27805;BME280;15183;51.350;11.102;2023-04-04T08:58:29;101311.63;;;10.44;42.74
27805;BME280;15183;51.350;11.102;2023-04-04T09:00:56;101329.50;;;10.41;43.05
27805;BME280;15183;51.350;11.102;2023-04-04T09:03:28;101323.03;;;10.29;42.79
27805;BME280;15183;51.350;11.102;2023-04-04T09:05:58;101296.16;;;9.95;42.87
27805;BME280;15183;51.350;11.102;2023-04-04T09:08:25;101290.63;;;9.75;42.23
27805;BME280;15183;51.350;11.102;2023-04-04T09:10:52;101299.72;;;9.73;42.45
27805;BME280;15183;51.350;11.102;2023-04-04T09:13:19;101317.16;;;9.82;43.00
27805;BME280;15183;51.350;11.102;2023-04-04T09:15:48;101313.69;;;9.81;42.45
27805;BME280;15183;51.350;11.102;2023-04-04T09:18:16;101295.06;;;9.75;42.77
27805;BME280;15183;51.350;11.102;2023-04-04T09:20:45;101313.97;;;10.02;42.70
27805;BME280;15183;51.350;11.102;2023-04-04T09:23:14;101314.06;;;10.08;43.16
27805;BME280;15183;51.350;11.102;2023-04-04T09:25:50;101304.41;;;10.22;44.00
27805;BME280;15183;51.350;11.102;2023-04-04T09:28:17;101316.03;;;10.58;44.28
27805;BME280;15183;51.350;11.102;2023-04-04T09:30:48;101322.16;;;10.80;43.94
27805;BME280;15183;51.350;11.102;2023-04-04T09:33:16;101314.59;;;10.99;43.82
27805;BME280;15183;51.350;11.102;2023-04-04T09:35:45;101293.16;;;11.00;42.91
27805;BME280;15183;51.350;11.102;2023-04-04T09:38:14;101296.69;;;11.08;43.22
27805;BME280;15183;51.350;11.102;2023-04-04T09:40:42;101314.25;;;11.37;43.84
27805;BME280;15183;51.350;11.102;2023-04-04T09:43:11;101286.28;;;11.35;44.31
27805;BME280;15183;51.350;11.102;2023-04-04T09:45:41;101319.19;;;11.76;44.27
27805;BME280;15183;51.350;11.102;2023-04-04T09:48:09;101310.38;;;11.75;43.08
27805;BME280;15183;51.350;11.102;2023-04-04T09:50:44;101313.41;;;11.65;42.41
27805;BME280;15183;51.350;11.102;2023-04-04T09:53:17;101318.88;;;11.57;42.58
27805;BME280;15183;51.350;11.102;2023-04-04T09:55:52;101299.78;;;11.40;42.25
27805;BME280;15183;51.350;11.102;2023-04-04T09:58:29;101311.69;;;11.51;41.88
27805;BME280;15183;51.350;11.102;2023-04-04T10:01:07;101290.28;;;11.59;42.69
27805;BME280;15183;51.350;11.102;2023-04-04T10:03:36;101299.06;;;11.95;41.71
27805;BME280;15183;51.350;11.102;2023-04-04T10:06:07;101293.81;;;12.08;41.16
27805;BME280;15183;51.350;11.102;2023-04-04T10:08:38;101306.31;;;12.28;41.21
27805;BME280;15183;51.350;11.102;2023-04-04T10:11:05;101308.59;;;12.38;41.53
27805;BME280;15183;51.350;11.102;2023-04-04T10:13:34;101285.13;;;12.55;41.70
27805;BME280;15183;51.350;11.102;2023-04-04T10:16:03;101278.41;;;12.66;41.19
27805;BME280;15183;51.350;11.102;2023-04-04T10:18:31;101278.19;;;12.87;41.22
27805;BME280;15183;51.350;11.102;2023-04-04T10:21:01;101304.56;;;13.23;41.29
27805;BME280;15183;51.350;11.102;2023-04-04T10:23:28;101295.94;;;13.41;41.24
27805;BME280;15183;51.350;11.102;2023-04-04T10:25:56;101289.63;;;13.35;40.42
27805;BME280;15183;51.350;11.102;2023-04-04T10:28:24;101288.59;;;13.29;40.91
27805;BME280;15183;51.350;11.102;2023-04-04T10:34:09;101289.25;;;12.98;39.87
27805;BME280;15183;51.350;11.102;2023-04-04T10:36:48;101260.19;;;12.63;40.70
27805;BME280;15183;51.350;11.102;2023-04-04T10:39:45;101266.34;;;12.56;41.18
27805;BME280;15183;51.350;11.102;2023-04-04T10:42:16;101278.19;;;12.61;41.45
27805;BME280;15183;51.350;11.102;2023-04-04T10:44:44;101264.25;;;12.45;39.55
27805;BME280;15183;51.350;11.102;2023-04-04T10:47:20;101272.84;;;12.40;39.79
27805;BME280;15183;51.350;11.102;2023-04-04T10:49:50;101257.88;;;12.26;38.71
27805;BME280;15183;51.350;11.102;2023-04-04T10:52:20;101277.50;;;12.18;38.62
27805;BME280;15183;51.350;11.102;2023-04-04T10:54:55;101267.88;;;12.10;39.66
27805;BME280;15183;51.350;11.102;2023-04-04T10:57:22;101268.66;;;12.11;39.30
27805;BME280;15183;51.350;11.102;2023-04-04T11:02:47;101261.91;;;12.01;39.11
27805;BME280;15183;51.350;11.102;2023-04-04T11:05:31;101243.66;;;11.92;39.29
27805;BME280;15183;51.350;11.102;2023-04-04T11:08:22;101238.78;;;11.95;39.99
27805;BME280;15183;51.350;11.102;2023-04-04T11:10:52;101225.75;;;12.00;39.52
27805;BME280;15183;51.350;11.102;2023-04-04T11:13:25;101227.00;;;12.11;39.35
27805;BME280;15183;51.350;11.102;2023-04-04T11:16:10;101234.38;;;12.23;39.86
27805;BME280;15183;51.350;11.102;2023-04-04T11:21:09;101232.34;;;12.45;39.08
27805;BME280;15183;51.350;11.102;2023-04-04T11:28:57;101236.06;;;12.57;39.55
27805;BME280;15183;51.350;11.102;2023-04-04T11:31:32;101234.84;;;12.73;40.24
27805;BME280;15183;51.350;11.102;2023-04-04T11:34:13;101225.00;;;12.94;40.21
27805;BME280;15183;51.350;11.102;2023-04-04T11:42:12;101216.56;;;13.24;40.39
27805;BME280;15183;51.350;11.102;2023-04-04T11:45:04;101143.56;;;12.93;40.88
27805;BME280;15183;51.350;11.102;2023-04-04T11:47:32;101203.22;;;13.44;40.64
27805;BME280;15183;51.350;11.102;2023-04-04T11:50:00;101221.56;;;13.66;40.59
27805;BME280;15183;51.350;11.102;2023-04-04T11:52:33;101235.06;;;13.71;39.84
27805;BME280;15183;51.350;11.102;2023-04-04T11:55:18;101198.09;;;13.29;38.87
27805;BME280;15183;51.350;11.102;2023-04-04T11:57:48;101206.38;;;13.01;37.71
27805;BME280;15183;51.350;11.102;2023-04-04T12:00:33;101212.13;;;12.64;37.76
27805;BME280;15183;51.350;11.102;2023-04-04T12:03:06;101186.09;;;12.06;38.98
27805;BME280;15183;51.350;11.102;2023-04-04T12:05:43;101183.25;;;12.00;38.80
27805;BME280;15183;51.350;11.102;2023-04-04T12:08:12;101215.53;;;12.04;38.88
27805;BME280;15183;51.350;11.102;2023-04-04T12:10:39;101210.44;;;12.09;39.48
27805;BME280;15183;51.350;11.102;2023-04-04T12:13:08;101141.28;;;11.76;39.77
27805;BME280;15183;51.350;11.102;2023-04-04T12:15:35;101192.66;;;12.10;38.92
27805;BME280;15183;51.350;11.102;2023-04-04T12:18:06;101205.94;;;12.10;38.96
27805;BME280;15183;51.350;11.102;2023-04-04T12:20:32;101190.63;;;12.05;39.42
27805;BME280;15183;51.350;11.102;2023-04-04T12:22:59;101188.59;;;12.14;39.30
27805;BME280;15183;51.350;11.102;2023-04-04T12:25:26;101154.22;;;12.06;39.66
27805;BME280;15183;51.350;11.102;2023-04-04T12:27:54;101172.66;;;12.34;39.97
27805;BME280;15183;51.350;11.102;2023-04-04T12:30:21;101175.91;;;12.43;39.37
27805;BME280;15183;51.350;11.102;2023-04-04T12:32:49;101172.88;;;12.39;39.46
27805;BME280;15183;51.350;11.102;2023-04-04T12:35:16;101142.00;;;12.18;39.62
27805;BME280;15183;51.350;11.102;2023-04-04T12:38:03;101172.25;;;12.37;39.58
27805;BME280;15183;51.350;11.102;2023-04-04T12:40:35;101166.31;;;12.28;39.69
27805;BME280;15183;51.350;11.102;2023-04-04T12:43:08;101155.91;;;12.20;39.23
27805;BME280;15183;51.350;11.102;2023-04-04T12:45:38;101154.06;;;12.14;39.18
27805;BME280;15183;51.350;11.102;2023-04-04T12:48:10;101138.72;;;12.16;39.58
27805;BME280;15183;51.350;11.102;2023-04-04T12:50:58;101142.81;;;12.19;40.11
27805;BME280;15183;51.350;11.102;2023-04-04T12:53:29;101139.13;;;12.20;39.71
27805;BME280;15183;51.350;11.102;2023-04-04T12:56:00;101117.06;;;12.19;39.76
27805;BME280;15183;51.350;11.102;2023-04-04T12:58:28;101134.22;;;12.37;40.14
27805;BME280;15183;51.350;11.102;2023-04-04T13:00:57;101130.13;;;12.41;38.90
27805;BME280;15183;51.350;11.102;2023-04-04T13:03:26;101127.28;;;12.36;38.58
27805;BME280;15183;51.350;11.102;2023-04-04T13:05:53;101122.56;;;12.31;38.93
27805;BME280;15183;51.350;11.102;2023-04-04T13:08:20;101097.03;;;12.23;39.24
27805;BME280;15183;51.350;11.102;2023-04-04T13:11:02;101129.09;;;12.62;39.32
27805;BME280;15183;51.350;11.102;2023-04-04T13:16:04;101126.41;;;12.62;38.13